createdAt,value
2023-07-24T00:00:01.687Z,81.64
2023-07-24T00:01:01.739Z,81.18
2023-07-24T00:02:01.680Z,81.94
2023-07-24T00:03:01.737Z,81.58
2023-07-24T00:04:01.649Z,81.58
2023-07-24T00:05:01.677Z,81.88
2023-07-24T00:06:01.649Z,81.78
2023-07-24T00:07:01.658Z,82.18
2023-07-24T00:08:01.681Z,82.58
2023-07-24T00:09:01.604Z,82.48
2023-07-24T00:10:01.621Z,82.32
2023-07-24T00:11:01.627Z,82.42
2023-07-24T00:12:01.601Z,82.52
2023-07-24T00:13:01.624Z,82.92
2023-07-24T00:14:01.612Z,82.82
2023-07-24T00:15:01.570Z,82.92
2023-07-24T00:16:01.637Z,82.82
2023-07-24T00:17:01.627Z,83.73
2023-07-24T00:18:01.618Z,83.47
2023-07-24T00:19:01.548Z,83.47
2023-07-24T00:20:01.590Z,83.57
2023-07-24T00:21:01.561Z,83.57
2023-07-24T00:22:01.577Z,83.57
2023-07-24T00:23:01.546Z,83.26
2023-07-24T00:24:01.534Z,83.17
2023-07-24T00:25:01.516Z,83.17
2023-07-24T00:26:01.515Z,82.97
2023-07-24T00:27:01.537Z,82.76
2023-07-24T00:28:01.532Z,82.97
2023-07-24T00:29:01.508Z,83.06
2023-07-24T00:30:01.543Z,82.97
2023-07-24T00:31:01.551Z,82.97
2023-07-24T00:32:01.484Z,83.26
2023-07-24T00:33:01.561Z,83.06
2023-07-24T00:34:01.517Z,82.46
2023-07-24T00:35:01.489Z,83.20
2023-07-24T00:36:01.470Z,83.06
2023-07-24T00:37:01.481Z,82.56
2023-07-24T00:38:01.497Z,82.16
2023-07-24T00:39:01.442Z,82.76
2023-07-24T00:40:01.442Z,82.56
2023-07-24T00:41:01.428Z,82.90
2023-07-24T00:42:01.402Z,83.75
2023-07-24T00:43:01.442Z,83.99
2023-07-24T00:44:01.418Z,85.64
2023-07-24T00:45:03.368Z,84.94
2023-07-24T00:46:01.412Z,84.80
2023-07-24T00:47:01.442Z,84.89
2023-07-24T00:48:01.498Z,85.03
2023-07-24T00:49:01.402Z,85.68
2023-07-24T00:50:01.443Z,85.58
2023-07-24T00:51:01.387Z,85.84
2023-07-24T00:52:01.362Z,85.68
2023-07-24T00:53:02.394Z,85.54
2023-07-24T00:54:01.331Z,85.24
2023-07-24T00:55:01.355Z,85.54
2023-07-24T00:56:01.334Z,85.00
2023-07-24T00:57:01.317Z,84.94
2023-07-24T00:58:01.326Z,84.29
2023-07-24T00:59:01.333Z,83.99
2023-07-24T01:00:02.336Z,83.89
2023-07-24T01:01:01.382Z,84.13
2023-07-24T01:02:01.279Z,83.83
2023-07-24T01:03:01.347Z,85.42
2023-07-24T01:04:01.281Z,86.43
2023-07-24T01:05:01.314Z,87.54
2023-07-24T01:06:01.274Z,86.63
2023-07-24T01:07:01.294Z,87.74
2023-07-24T01:08:01.266Z,87.49
2023-07-24T01:09:01.255Z,86.49
2023-07-24T01:10:01.273Z,86.29
2023-07-24T01:11:01.238Z,86.29
2023-07-24T01:12:01.247Z,86.58
2023-07-24T01:13:01.229Z,86.79
2023-07-24T01:14:01.247Z,86.75
2023-07-24T01:15:01.186Z,86.85
2023-07-24T01:16:01.210Z,85.94
2023-07-24T01:17:01.307Z,86.04
2023-07-24T01:18:01.230Z,86.04
2023-07-24T01:19:01.174Z,85.74
2023-07-24T01:20:01.220Z,85.54
2023-07-24T01:21:01.158Z,85.24
2023-07-24T01:22:01.173Z,86.79
2023-07-24T01:23:01.264Z,87.63
2023-07-24T01:24:01.140Z,88.04
2023-07-24T01:25:01.157Z,88.59
2023-07-24T01:26:01.120Z,88.79
2023-07-24T01:27:01.135Z,88.85
2023-07-24T01:28:01.147Z,88.14
2023-07-24T01:29:01.106Z,88.28
2023-07-24T01:30:01.113Z,89.43
2023-07-24T01:31:01.156Z,90.14
2023-07-24T01:32:01.123Z,90.79
2023-07-24T01:33:01.177Z,91.09
2023-07-24T01:34:01.087Z,91.50
2023-07-24T01:35:01.058Z,91.30
2023-07-24T01:36:01.062Z,91.05
2023-07-24T01:37:01.060Z,91.35
2023-07-24T01:38:01.096Z,91.01
2023-07-24T01:39:01.020Z,90.61
2023-07-24T01:40:01.040Z,90.00
2023-07-24T01:41:01.027Z,89.50
2023-07-24T01:42:01.044Z,88.95
2023-07-24T01:43:01.044Z,88.34
2023-07-24T01:44:01.008Z,87.90
2023-07-24T01:45:01.006Z,87.70
2023-07-24T01:46:01.063Z,87.49
2023-07-24T01:47:01.009Z,86.53
2023-07-24T01:48:01.096Z,86.49
2023-07-24T01:49:01.032Z,85.98
2023-07-24T01:50:00.985Z,85.98
2023-07-24T01:51:01.997Z,86.18
2023-07-24T01:52:00.981Z,85.88
2023-07-24T01:53:00.969Z,85.98
2023-07-24T01:54:00.981Z,85.58
2023-07-24T01:55:00.941Z,85.54
2023-07-24T01:56:00.941Z,85.68
2023-07-24T01:57:00.944Z,85.38
2023-07-24T01:58:00.913Z,85.74
2023-07-24T01:59:00.919Z,85.78
2023-07-24T02:00:00.910Z,86.08
2023-07-24T02:01:00.904Z,86.08
2023-07-24T02:02:00.912Z,85.98
2023-07-24T02:03:00.926Z,86.89
2023-07-24T02:04:00.911Z,86.69
2023-07-24T02:05:00.912Z,85.78
2023-07-24T02:06:00.909Z,85.68
2023-07-24T02:07:00.857Z,85.98
2023-07-24T02:08:00.872Z,86.15
2023-07-24T02:09:00.854Z,85.94
2023-07-24T02:10:00.874Z,86.04
2023-07-24T02:11:00.832Z,85.94
2023-07-24T02:12:00.823Z,85.94
2023-07-24T02:13:00.822Z,85.44
2023-07-24T02:14:00.803Z,85.94
2023-07-24T02:15:00.858Z,85.98
2023-07-24T02:16:00.813Z,85.24
2023-07-24T02:17:00.793Z,85.64
2023-07-24T02:18:00.834Z,85.34
2023-07-24T02:19:00.792Z,85.24
2023-07-24T02:20:00.810Z,85.03
2023-07-24T02:21:00.812Z,85.48
2023-07-24T02:22:00.788Z,86.63
2023-07-24T02:23:00.743Z,87.68
2023-07-24T02:24:00.764Z,88.63
2023-07-24T02:25:00.754Z,89.34
2023-07-24T02:26:00.749Z,90.34
2023-07-24T02:27:00.760Z,90.89
2023-07-24T02:28:00.763Z,91.64
2023-07-24T02:29:00.738Z,91.94
2023-07-24T02:30:00.765Z,92.25
2023-07-24T02:31:00.764Z,92.25
2023-07-24T02:32:00.746Z,92.65
2023-07-24T02:33:00.715Z,92.10
2023-07-24T02:34:00.695Z,92.10
2023-07-24T02:35:00.675Z,91.60
2023-07-24T02:36:00.669Z,91.70
2023-07-24T02:37:00.724Z,91.19
2023-07-24T02:38:00.747Z,91.09
2023-07-24T02:39:00.637Z,90.85
2023-07-24T02:40:00.696Z,90.55
2023-07-24T02:41:00.651Z,89.70
2023-07-24T02:42:00.658Z,89.09
2023-07-24T02:43:00.633Z,88.79
2023-07-24T02:44:00.606Z,88.59
2023-07-24T02:45:00.616Z,88.08
2023-07-24T02:46:00.634Z,88.18
2023-07-24T02:47:00.589Z,87.58
2023-07-24T02:48:00.656Z,87.98
2023-07-24T02:49:00.631Z,86.63
2023-07-24T02:50:00.624Z,86.33
2023-07-24T02:51:00.622Z,86.22
2023-07-24T02:52:00.571Z,86.16
2023-07-24T02:53:00.583Z,87.01
2023-07-24T02:54:00.580Z,87.86
2023-07-24T02:55:00.524Z,87.82
2023-07-24T02:56:00.543Z,87.88
2023-07-24T02:57:00.560Z,86.41
2023-07-24T02:58:00.519Z,86.57
2023-07-24T02:59:00.549Z,86.27
2023-07-24T03:00:00.512Z,86.16
2023-07-24T03:01:00.582Z,85.72
2023-07-24T03:02:00.514Z,85.82
2023-07-24T03:03:00.552Z,85.02
2023-07-24T03:04:00.516Z,85.02
2023-07-24T03:05:00.474Z,84.81
2023-07-24T03:06:00.507Z,83.76
2023-07-24T03:07:00.484Z,84.17
2023-07-24T03:08:00.503Z,84.17
2023-07-24T03:09:00.473Z,84.01
2023-07-24T03:10:00.442Z,85.60
2023-07-24T03:11:00.427Z,86.27
2023-07-24T03:12:00.468Z,86.16
2023-07-24T03:13:00.432Z,86.36
2023-07-24T03:14:00.490Z,86.27
2023-07-24T03:15:00.433Z,85.86
2023-07-24T03:16:00.477Z,85.56
2023-07-24T03:17:03.135Z,85.16
2023-07-24T03:18:00.433Z,85.02
2023-07-24T03:19:00.396Z,83.80
2023-07-24T03:20:00.391Z,84.01
2023-07-24T03:21:00.380Z,84.21
2023-07-24T03:22:00.400Z,84.31
2023-07-24T03:23:00.358Z,84.11
2023-07-24T03:24:00.365Z,83.84
2023-07-24T03:25:00.344Z,84.85
2023-07-24T03:26:00.333Z,85.46
2023-07-24T03:27:00.324Z,85.46
2023-07-24T03:28:00.314Z,85.66
2023-07-24T03:29:00.356Z,85.66
2023-07-24T03:30:00.343Z,85.16
2023-07-24T03:31:00.441Z,85.25
2023-07-24T03:32:00.293Z,85.11
2023-07-24T03:33:00.316Z,83.74
2023-07-24T03:34:00.267Z,84.21
2023-07-24T03:35:00.320Z,83.95
2023-07-24T03:36:00.353Z,84.21
2023-07-24T03:37:00.259Z,84.01
2023-07-24T03:38:00.277Z,84.01
2023-07-24T03:39:00.239Z,84.21
2023-07-24T03:40:00.268Z,84.31
2023-07-24T03:41:00.234Z,83.91
2023-07-24T03:42:00.249Z,85.54
2023-07-24T03:43:00.241Z,86.59
2023-07-24T03:44:00.209Z,87.26
2023-07-24T03:45:00.224Z,87.19
2023-07-24T03:46:00.240Z,87.56
2023-07-24T03:47:00.398Z,88.06
2023-07-24T03:48:00.211Z,87.56
2023-07-24T03:49:00.214Z,87.05
2023-07-24T03:50:00.207Z,87.30
2023-07-24T03:51:00.168Z,87.50
2023-07-24T03:52:00.168Z,88.75
2023-07-24T03:53:00.200Z,88.81
2023-07-24T03:54:00.142Z,88.45
2023-07-24T03:55:00.131Z,88.81
2023-07-24T03:56:00.129Z,88.65
2023-07-24T03:57:00.109Z,89.20
2023-07-24T03:58:00.135Z,89.46
2023-07-24T03:59:00.111Z,90.01
2023-07-24T04:00:00.141Z,90.11
2023-07-24T04:01:00.136Z,90.21
2023-07-24T04:02:00.130Z,90.17
2023-07-24T04:03:00.156Z,90.27
2023-07-24T04:04:00.091Z,90.21
2023-07-24T04:05:00.085Z,90.11
2023-07-24T04:06:00.077Z,90.11
2023-07-24T04:07:00.104Z,90.62
2023-07-24T04:08:00.156Z,90.82
2023-07-24T04:09:00.017Z,90.62
2023-07-24T04:10:00.024Z,90.92
2023-07-24T04:11:00.049Z,91.02
2023-07-24T04:12:00.027Z,90.92
2023-07-24T04:13:00.032Z,90.88
2023-07-24T04:13:59.982Z,90.63
2023-07-24T04:14:59.972Z,90.33
2023-07-24T04:16:00.003Z,90.12
2023-07-24T04:17:00.042Z,89.68
2023-07-24T04:18:00.004Z,88.57
2023-07-24T04:19:00.004Z,88.26
2023-07-24T04:19:59.939Z,87.86
2023-07-24T04:20:59.976Z,88.17
2023-07-24T04:21:59.979Z,88.06
2023-07-24T04:22:59.973Z,87.52
2023-07-24T04:23:59.924Z,87.41
2023-07-24T04:24:59.908Z,88.47
2023-07-24T04:25:59.921Z,88.17
2023-07-24T04:26:59.942Z,88.17
2023-07-24T04:27:59.908Z,88.06
2023-07-24T04:28:59.869Z,87.62
2023-07-24T04:29:59.888Z,87.62
2023-07-24T04:30:59.914Z,88.02
2023-07-24T04:31:59.902Z,87.52
2023-07-24T04:32:59.915Z,87.01
2023-07-24T04:33:59.847Z,87.41
2023-07-24T04:34:59.856Z,86.51
2023-07-24T04:35:59.838Z,87.52
2023-07-24T04:36:59.954Z,87.32
2023-07-24T04:37:59.872Z,87.21
2023-07-24T04:38:59.855Z,87.72
2023-07-24T04:39:59.795Z,87.12
2023-07-24T04:40:59.823Z,88.02
2023-07-24T04:41:59.829Z,87.46
2023-07-24T04:42:59.819Z,88.26
2023-07-24T04:43:59.793Z,89.92
2023-07-24T04:44:59.791Z,90.12
2023-07-24T04:45:59.811Z,89.23
2023-07-24T04:46:59.863Z,87.84
2023-07-24T04:47:59.789Z,85.94
2023-07-24T04:48:59.739Z,83.89
2023-07-24T04:49:59.756Z,83.14
2023-07-24T04:50:59.832Z,82.60
2023-07-24T04:51:59.765Z,82.14
2023-07-24T04:52:59.719Z,82.74
2023-07-24T04:53:59.734Z,82.54
2023-07-24T04:54:59.842Z,83.14
2023-07-24T04:55:59.714Z,83.04
2023-07-24T04:56:59.746Z,82.50
2023-07-24T04:57:59.683Z,82.54
2023-07-24T04:58:59.712Z,83.69
2023-07-24T04:59:59.684Z,83.79
2023-07-24T05:00:59.687Z,83.69
2023-07-24T05:01:59.733Z,83.69
2023-07-24T05:02:59.688Z,83.69
2023-07-24T05:03:59.677Z,83.99
2023-07-24T05:04:59.679Z,85.17
2023-07-24T05:05:59.670Z,85.64
2023-07-24T05:06:59.660Z,85.88
2023-07-24T05:07:59.606Z,86.69
2023-07-24T05:08:59.639Z,87.03
2023-07-24T05:09:59.648Z,87.54
2023-07-24T05:10:59.651Z,86.89
2023-07-24T05:11:59.613Z,87.94
2023-07-24T05:12:59.600Z,87.19
2023-07-24T05:13:59.603Z,87.29
2023-07-24T05:14:59.573Z,86.99
2023-07-24T05:15:59.583Z,86.35
2023-07-24T05:16:59.561Z,86.04
2023-07-24T05:17:59.613Z,85.50
2023-07-24T05:18:59.591Z,85.10
2023-07-24T05:19:59.536Z,84.55
2023-07-24T05:20:59.567Z,84.01
2023-07-24T05:21:59.542Z,83.11
2023-07-24T05:22:59.563Z,81.99
2023-07-24T05:23:59.518Z,82.16
2023-07-24T05:24:59.507Z,82.16
2023-07-24T05:25:59.519Z,81.35
2023-07-24T05:26:59.528Z,82.42
2023-07-24T05:27:59.511Z,81.26
2023-07-24T05:28:59.510Z,81.32
2023-07-24T05:29:59.491Z,81.41
2023-07-24T05:30:59.475Z,81.21
2023-07-24T05:31:59.557Z,81.82
2023-07-24T05:32:59.585Z,81.21
2023-07-24T05:33:59.467Z,81.21
2023-07-24T05:34:59.438Z,81.62
2023-07-24T05:35:59.460Z,81.38
2023-07-24T05:36:59.438Z,81.12
2023-07-24T05:37:59.525Z,81.62
2023-07-24T05:38:59.425Z,81.76
2023-07-24T05:39:59.415Z,81.90
2023-07-24T05:40:59.410Z,83.00
2023-07-24T05:41:59.507Z,84.80
2023-07-24T05:42:59.414Z,86.08
2023-07-24T05:43:59.397Z,86.38
2023-07-24T05:45:00.384Z,87.70
2023-07-24T05:45:59.447Z,87.60
2023-07-24T05:46:59.460Z,87.49
2023-07-24T05:47:59.493Z,86.95
2023-07-24T05:48:59.476Z,87.96
2023-07-24T05:49:59.365Z,87.76
2023-07-24T05:50:59.372Z,87.55
2023-07-24T05:51:59.324Z,87.62
2023-07-24T05:53:01.420Z,86.87
2023-07-24T05:53:59.342Z,86.02
2023-07-24T05:54:59.359Z,85.08
2023-07-24T05:55:59.318Z,84.63
2023-07-24T05:56:59.327Z,83.23
2023-07-24T05:57:59.282Z,82.89
2023-07-24T05:58:59.322Z,81.78
2023-07-24T05:59:59.311Z,81.64
2023-07-24T06:00:59.282Z,81.14
2023-07-24T06:01:59.344Z,80.19
2023-07-24T06:02:59.268Z,80.19
2023-07-24T06:03:59.376Z,80.26
2023-07-24T06:04:59.311Z,77.91
2023-07-24T06:05:59.240Z,77.48
2023-07-24T06:06:59.314Z,77.48
2023-07-24T06:07:59.230Z,76.07
2023-07-24T06:08:59.218Z,76.54
2023-07-24T06:09:59.257Z,76.34
2023-07-24T06:10:59.230Z,76.20
2023-07-24T06:11:59.223Z,75.20
2023-07-24T06:12:59.207Z,74.20
2023-07-24T06:14:00.190Z,74.06
2023-07-24T06:14:59.179Z,75.16
2023-07-24T06:15:59.247Z,75.76
2023-07-24T06:16:59.266Z,74.13
2023-07-24T06:17:59.218Z,73.56
2023-07-24T06:18:59.180Z,73.56
2023-07-24T06:19:59.238Z,74.20
2023-07-24T06:20:59.151Z,75.00
2023-07-24T06:21:59.180Z,74.93
2023-07-24T06:22:59.147Z,76.74
2023-07-24T06:23:59.135Z,76.34
2023-07-24T06:24:59.121Z,76.67
2023-07-24T06:25:59.137Z,76.01
2023-07-24T06:26:59.127Z,77.65
2023-07-24T06:27:59.096Z,78.55
2023-07-24T06:28:59.097Z,78.85
2023-07-24T06:31:00.108Z,77.81
2023-07-24T06:31:59.119Z,78.08
2023-07-24T06:32:59.138Z,77.14
2023-07-24T06:33:59.060Z,75.70
2023-07-24T06:34:59.051Z,75.50
2023-07-24T06:35:59.175Z,75.56
2023-07-24T06:37:09.114Z,74.37
2023-07-24T06:38:01.063Z,73.33
2023-07-24T06:38:59.072Z,73.33
2023-07-24T06:39:59.030Z,72.59
2023-07-24T06:40:59.031Z,73.89
2023-07-24T06:41:59.044Z,72.89
2023-07-24T06:42:59.050Z,71.66
2023-07-24T06:43:59.021Z,71.16
2023-07-24T06:44:59.023Z,71.66
2023-07-24T06:45:59.047Z,71.06
2023-07-24T06:46:59.022Z,71.36
2023-07-24T06:47:59.026Z,70.36
2023-07-24T06:48:58.967Z,71.66
2023-07-24T06:49:59.016Z,71.59
2023-07-24T06:50:59.043Z,72.49
2023-07-24T06:51:58.973Z,73.09
2023-07-24T06:52:58.933Z,72.23
2023-07-24T06:53:58.924Z,72.42
2023-07-24T06:54:58.966Z,73.06
2023-07-24T06:55:58.976Z,73.56
2023-07-24T06:56:58.942Z,73.56
2023-07-24T06:57:58.930Z,74.06
2023-07-24T06:58:58.907Z,73.56
2023-07-24T06:59:58.883Z,73.33
2023-07-24T07:00:58.931Z,71.69
2023-07-24T07:01:58.905Z,72.16
2023-07-24T07:02:58.935Z,70.83
2023-07-24T07:03:58.963Z,71.99
2023-07-24T07:04:58.878Z,69.69
2023-07-24T07:05:58.878Z,69.46
2023-07-24T07:06:58.874Z,68.56
2023-07-24T07:07:58.853Z,69.46
2023-07-24T07:08:58.856Z,68.79
2023-07-24T07:09:58.854Z,67.19
2023-07-24T07:10:58.869Z,67.16
2023-07-24T07:11:58.816Z,66.70
2023-07-24T07:12:58.809Z,67.40
2023-07-24T07:13:58.895Z,67.40
2023-07-24T07:14:58.822Z,68.23
2023-07-24T07:15:58.846Z,67.33
2023-07-24T07:16:58.834Z,67.13
2023-07-24T07:17:58.819Z,67.83
2023-07-24T07:18:58.835Z,67.43
2023-07-24T07:19:58.823Z,67.19
2023-07-24T07:20:58.777Z,67.66
2023-07-24T07:21:58.785Z,66.86
2023-07-24T07:22:58.788Z,66.77
2023-07-24T07:23:58.758Z,66.03
2023-07-24T07:24:58.785Z,67.03
2023-07-24T07:25:58.738Z,66.33
2023-07-24T07:26:58.755Z,66.53
2023-07-24T07:27:58.722Z,65.23
2023-07-24T07:28:58.730Z,65.23
2023-07-24T07:29:58.713Z,65.53
2023-07-24T07:30:58.789Z,65.23
2023-07-24T07:31:58.752Z,64.74
2023-07-24T07:32:58.734Z,63.77
2023-07-24T07:33:58.736Z,63.97
2023-07-24T07:34:58.663Z,64.77
2023-07-24T07:35:59.863Z,64.97
2023-07-24T07:36:59.683Z,65.53
2023-07-24T07:37:58.643Z,65.34
2023-07-24T07:38:58.676Z,65.23
2023-07-24T07:39:58.649Z,65.23
2023-07-24T07:40:58.650Z,62.81
2023-07-24T07:42:12.195Z,62.78
2023-07-24T07:43:00.631Z,63.25
2023-07-24T07:43:58.773Z,62.15
2023-07-24T07:44:58.622Z,62.82
2023-07-24T07:45:58.593Z,62.19
2023-07-24T07:46:58.693Z,61.37
2023-07-24T07:47:58.637Z,60.25
2023-07-24T07:48:58.664Z,59.15
2023-07-24T07:49:58.612Z,58.92
2023-07-24T07:50:58.607Z,57.73
2023-07-24T07:51:58.560Z,58.83
2023-07-24T07:52:58.603Z,59.03
2023-07-24T07:53:58.570Z,58.65
2023-07-24T07:55:00.366Z,58.56
2023-07-24T07:55:58.597Z,58.45
2023-07-24T07:56:58.585Z,57.56
2023-07-24T07:57:58.506Z,58.33
2023-07-24T07:58:58.518Z,56.84
2023-07-24T07:59:58.565Z,57.64
2023-07-24T08:00:58.526Z,58.03
2023-07-24T08:01:58.516Z,57.90
2023-07-24T08:02:58.636Z,57.90
2023-07-24T08:03:58.567Z,58.13
2023-07-24T08:05:01.816Z,58.62
2023-07-24T08:05:59.490Z,57.93
2023-07-24T08:06:58.439Z,57.64
2023-07-24T08:07:58.456Z,57.31
2023-07-24T08:08:58.438Z,56.94
2023-07-24T08:09:58.440Z,57.76
2023-07-24T08:10:58.440Z,57.36
2023-07-24T08:11:58.408Z,57.53
2023-07-24T08:12:58.503Z,58.13
2023-07-24T08:13:58.427Z,57.53
2023-07-24T08:14:58.448Z,57.93
2023-07-24T08:15:58.414Z,57.73
2023-07-24T08:16:58.493Z,57.70
2023-07-24T08:17:58.393Z,57.60
2023-07-24T08:18:58.691Z,58.53
2023-07-24T08:19:59.903Z,57.83
2023-07-24T08:20:58.425Z,57.64
2023-07-24T08:21:58.350Z,58.26
2023-07-24T08:22:58.353Z,58.65
2023-07-24T08:23:58.377Z,58.65
2023-07-24T08:24:58.438Z,57.99
2023-07-24T08:25:58.368Z,58.69
2023-07-24T08:26:58.305Z,58.48
2023-07-24T08:28:05.356Z,58.69
2023-07-24T08:29:00.312Z,59.18
2023-07-24T08:29:58.295Z,58.58
2023-07-24T08:30:58.343Z,58.86
2023-07-24T08:31:58.411Z,59.75
2023-07-24T08:32:58.390Z,59.75
2023-07-24T08:33:58.354Z,60.05
2023-07-24T08:34:58.285Z,58.65
2023-07-24T08:35:58.234Z,59.15
2023-07-24T08:36:58.260Z,58.26
2023-07-24T08:37:58.232Z,59.85
2023-07-24T08:38:58.294Z,59.15
2023-07-24T08:39:58.201Z,59.25
2023-07-24T08:40:58.220Z,59.03
2023-07-24T08:41:58.218Z,58.92
2023-07-24T08:42:58.340Z,58.83
2023-07-24T08:43:58.288Z,58.62
2023-07-24T08:44:58.224Z,58.45
2023-07-24T08:45:58.267Z,58.53
2023-07-24T08:46:58.182Z,57.66
2023-07-24T08:47:58.281Z,58.95
2023-07-24T08:48:58.256Z,58.16
2023-07-24T08:49:58.219Z,58.62
2023-07-24T08:50:58.203Z,59.03
2023-07-24T08:52:00.527Z,58.33
2023-07-24T08:52:58.234Z,59.92
2023-07-24T08:53:58.233Z,60.09
2023-07-24T08:55:00.677Z,58.00
2023-07-24T08:55:58.121Z,57.41
2023-07-24T08:56:58.134Z,58.40
2023-07-24T08:57:59.984Z,58.50
2023-07-24T08:58:58.097Z,58.60
2023-07-24T08:59:58.126Z,59.09
2023-07-24T09:00:58.138Z,59.00
2023-07-24T09:01:58.051Z,58.20
2023-07-24T09:02:58.100Z,57.81
2023-07-24T09:03:58.091Z,57.81
2023-07-24T09:04:58.063Z,58.17
2023-07-24T09:05:58.095Z,58.27
2023-07-24T09:06:58.061Z,57.38
2023-07-24T09:07:58.024Z,57.18
2023-07-24T09:08:58.030Z,57.78
2023-07-24T09:09:58.032Z,57.38
2023-07-24T09:10:58.056Z,58.97
2023-07-24T09:11:58.030Z,58.34
2023-07-24T09:12:57.986Z,56.85
2023-07-24T09:13:59.768Z,56.85
2023-07-24T09:14:57.966Z,56.66
2023-07-24T09:15:58.037Z,56.29
2023-07-24T09:16:58.024Z,56.85
2023-07-24T09:17:58.070Z,57.25
2023-07-24T09:19:10.464Z,55.79
2023-07-24T09:19:59.986Z,56.29
2023-07-24T09:20:57.965Z,57.28
2023-07-24T09:21:57.961Z,57.31
2023-07-24T09:23:14.167Z,56.71
2023-07-24T09:23:59.950Z,57.51
2023-07-24T09:24:57.933Z,58.60
2023-07-24T09:25:57.894Z,57.68
2023-07-24T09:26:59.220Z,57.68
2023-07-24T09:27:58.893Z,57.78
2023-07-24T09:28:57.893Z,55.96
2023-07-24T09:29:57.867Z,56.29
2023-07-24T09:30:57.942Z,56.29
2023-07-24T09:31:57.943Z,56.12
2023-07-24T09:32:57.890Z,56.14
2023-07-24T09:33:57.882Z,57.43
2023-07-24T09:34:57.971Z,57.43
2023-07-24T09:35:57.850Z,56.21
2023-07-24T09:36:58.040Z,57.18
2023-07-24T09:37:57.850Z,56.78
2023-07-24T09:38:57.815Z,56.26
2023-07-24T09:40:00.055Z,55.24
2023-07-24T09:40:57.847Z,53.96
2023-07-24T09:41:57.848Z,53.75
2023-07-24T09:43:25.206Z,53.26
2023-07-24T09:43:59.809Z,52.76
2023-07-24T09:45:04.550Z,52.86
2023-07-24T09:45:58.228Z,51.97
2023-07-24T09:48:02.639Z,52.66
2023-07-24T09:49:58.764Z,52.39
2023-07-24T09:50:57.743Z,53.11
2023-07-24T09:51:57.828Z,53.04
2023-07-24T09:52:57.730Z,53.14
2023-07-24T09:53:57.759Z,53.16
2023-07-24T09:54:57.724Z,53.66
2023-07-24T09:55:57.732Z,52.86
2023-07-24T09:57:06.918Z,54.06
2023-07-24T09:57:59.800Z,53.93
2023-07-24T09:58:57.710Z,53.61
2023-07-24T09:59:57.761Z,52.59
2023-07-24T10:00:57.758Z,52.98
2023-07-24T10:01:57.715Z,52.09
2023-07-24T10:02:57.688Z,52.66
2023-07-24T10:03:57.640Z,52.37
2023-07-24T10:04:57.771Z,53.03
2023-07-24T10:05:57.650Z,53.73
2023-07-24T10:06:57.687Z,52.81
2023-07-24T10:07:57.641Z,51.92
2023-07-24T10:08:57.624Z,52.41
2023-07-24T10:09:57.650Z,52.64
2023-07-24T10:10:57.635Z,52.86
2023-07-24T10:11:57.843Z,52.86
2023-07-24T10:12:57.604Z,52.86
2023-07-24T10:13:57.598Z,54.02
2023-07-24T10:14:58.610Z,53.73
2023-07-24T10:15:57.623Z,52.61
2023-07-24T10:16:58.582Z,52.49
2023-07-24T10:17:57.611Z,52.29
2023-07-24T10:18:57.575Z,52.29
2023-07-24T10:19:57.582Z,52.09
2023-07-24T10:20:57.583Z,52.71
2023-07-24T10:21:57.540Z,53.73
2023-07-24T10:22:57.554Z,52.81
2023-07-24T10:23:57.559Z,53.70
2023-07-24T10:24:57.582Z,52.31
2023-07-24T10:25:57.524Z,53.83
2023-07-24T10:26:57.517Z,53.53
2023-07-24T10:27:57.504Z,52.73
2023-07-24T10:28:57.499Z,53.45
2023-07-24T10:29:57.504Z,53.85
2023-07-24T10:30:58.592Z,53.85
2023-07-24T10:31:57.684Z,54.08
2023-07-24T10:32:57.613Z,54.00
2023-07-24T10:33:57.520Z,53.80
2023-07-24T10:34:57.469Z,54.30
2023-07-24T10:35:57.482Z,54.13
2023-07-24T10:36:57.486Z,54.40
2023-07-24T10:37:57.450Z,54.21
2023-07-24T10:38:57.440Z,52.89
2023-07-24T10:39:57.512Z,52.59
2023-07-24T10:40:57.428Z,51.97
2023-07-24T10:41:57.502Z,52.14
2023-07-24T10:42:57.437Z,51.75
2023-07-24T10:43:57.478Z,52.71
2023-07-24T10:44:57.411Z,51.30
2023-07-24T10:45:57.475Z,49.71
2023-07-24T10:46:57.499Z,49.54
2023-07-24T10:47:57.464Z,49.94
2023-07-24T10:48:57.396Z,51.30
2023-07-24T10:49:57.366Z,50.88
2023-07-24T10:50:57.367Z,50.18
2023-07-24T10:51:57.385Z,48.88
2023-07-24T10:52:57.355Z,48.65
2023-07-24T10:53:57.391Z,48.06
2023-07-24T10:54:57.380Z,47.77
2023-07-24T10:55:57.331Z,47.94
2023-07-24T10:56:57.338Z,47.91
2023-07-24T10:57:57.426Z,46.63
2023-07-24T10:58:57.307Z,47.62
2023-07-24T10:59:57.413Z,47.42
2023-07-24T11:00:57.429Z,47.34
2023-07-24T11:01:57.315Z,46.78
2023-07-24T11:02:57.382Z,47.00
2023-07-24T11:03:57.298Z,47.61
2023-07-24T11:04:57.323Z,47.02
2023-07-24T11:05:57.275Z,47.63
2023-07-24T11:06:57.272Z,47.96
2023-07-24T11:07:57.278Z,48.77
2023-07-24T11:08:57.272Z,48.69
2023-07-24T11:09:57.253Z,49.39
2023-07-24T11:10:57.262Z,49.69
2023-07-24T11:11:57.264Z,50.26
2023-07-24T11:12:57.242Z,49.57
2023-07-24T11:13:57.299Z,49.64
2023-07-24T11:14:57.241Z,49.62
2023-07-24T11:15:57.312Z,49.71
2023-07-24T11:16:57.225Z,49.00
2023-07-24T11:17:57.261Z,48.18
2023-07-24T11:18:57.250Z,47.89
2023-07-24T11:19:57.185Z,48.18
2023-07-24T11:20:57.206Z,47.99
2023-07-24T11:21:57.190Z,47.61
2023-07-24T11:22:57.214Z,48.01
2023-07-24T11:23:57.204Z,48.11
2023-07-24T11:24:57.192Z,49.00
2023-07-24T11:25:57.141Z,47.52
2023-07-24T11:26:57.151Z,48.11
2023-07-24T11:27:57.136Z,47.81
2023-07-24T11:28:57.144Z,48.70
2023-07-24T11:29:57.153Z,47.71
2023-07-24T11:30:57.118Z,47.91
2023-07-24T11:31:57.127Z,47.89
2023-07-24T11:32:57.123Z,48.38
2023-07-24T11:33:57.104Z,47.86
2023-07-24T11:34:58.118Z,48.06
2023-07-24T11:35:57.119Z,47.54
2023-07-24T11:36:57.142Z,46.66
2023-07-24T11:37:57.455Z,47.27
2023-07-24T11:38:57.061Z,47.77
2023-07-24T11:39:57.059Z,47.77
2023-07-24T11:40:57.261Z,47.66
2023-07-24T11:41:57.051Z,48.48
2023-07-24T11:42:57.074Z,47.89
2023-07-24T11:43:57.113Z,48.46
2023-07-24T11:44:57.059Z,47.66
2023-07-24T11:45:57.056Z,47.17
2023-07-24T11:46:59.028Z,47.96
2023-07-24T11:47:58.059Z,47.69
2023-07-24T11:48:57.201Z,47.49
2023-07-24T11:49:57.025Z,47.78
2023-07-24T11:50:56.998Z,47.78
2023-07-24T11:51:57.020Z,48.21
2023-07-24T11:52:56.992Z,48.60
2023-07-24T11:53:57.095Z,48.50
2023-07-24T11:54:56.967Z,48.11
2023-07-24T11:55:57.009Z,48.01
2023-07-24T11:56:56.971Z,48.43
2023-07-24T11:57:56.942Z,48.65
2023-07-24T11:58:56.955Z,49.24
2023-07-24T11:59:56.935Z,49.46
2023-07-24T12:00:56.933Z,48.97
2023-07-24T12:01:56.930Z,49.66
2023-07-24T12:02:57.009Z,49.44
2023-07-24T12:03:57.014Z,48.75
2023-07-24T12:04:56.911Z,48.72
2023-07-24T12:05:56.933Z,48.82
2023-07-24T12:06:56.942Z,48.13
2023-07-24T12:07:56.871Z,47.41
2023-07-24T12:08:56.925Z,48.30
2023-07-24T12:09:56.883Z,47.91
2023-07-24T12:10:56.862Z,48.01
2023-07-24T12:11:56.872Z,47.89
2023-07-24T12:12:56.875Z,48.18
2023-07-24T12:13:56.878Z,47.69
2023-07-24T12:14:56.852Z,47.77
2023-07-24T12:15:56.930Z,48.38
2023-07-24T12:16:56.855Z,47.89
2023-07-24T12:17:56.847Z,48.68
2023-07-24T12:18:56.829Z,47.49
2023-07-24T12:19:56.854Z,47.77
2023-07-24T12:20:56.848Z,47.69
2023-07-24T12:21:56.821Z,48.16
2023-07-24T12:22:56.836Z,47.69
2023-07-24T12:23:56.838Z,48.18
2023-07-24T12:24:56.918Z,47.69
2023-07-24T12:25:56.768Z,48.08
2023-07-24T12:26:56.775Z,48.85
2023-07-24T12:27:56.770Z,48.73
2023-07-24T12:28:57.785Z,47.84
2023-07-24T12:29:56.762Z,48.24
2023-07-24T12:30:56.747Z,47.15
2023-07-24T12:31:56.741Z,48.16
2023-07-24T12:32:56.832Z,47.69
2023-07-24T12:33:56.760Z,48.18
2023-07-24T12:34:56.727Z,48.68
2023-07-24T12:35:56.789Z,49.27
2023-07-24T12:36:56.782Z,49.69
2023-07-24T12:37:56.733Z,48.48
2023-07-24T12:38:56.740Z,48.88
2023-07-24T12:39:56.713Z,49.17
2023-07-24T12:40:56.687Z,49.17
2023-07-24T12:41:56.694Z,49.07
2023-07-24T12:42:56.741Z,48.80
2023-07-24T12:43:56.699Z,48.80
2023-07-24T12:44:58.947Z,49.59
2023-07-24T12:45:57.718Z,50.29
2023-07-24T12:46:56.746Z,49.29
2023-07-24T12:47:56.763Z,49.62
2023-07-24T12:48:56.683Z,49.64
2023-07-24T12:49:56.646Z,49.54
2023-07-24T12:50:56.668Z,50.31
2023-07-24T12:51:56.626Z,49.71
2023-07-24T12:52:56.642Z,50.85
2023-07-24T12:54:02.215Z,49.64
2023-07-24T12:55:01.797Z,49.22